sensor_id;sensor_type;location;lat;lon;timestamp;P1;durP1;ratioP1;P2;durP2;ratioP2
6348;SDS011;3207;42.648;23.406;2022-12-08T00:00:47;20.17;;;13.50;;
6348;SDS011;3207;42.648;23.406;2022-12-08T00:03:14;21.90;;;14.33;;
6348;SDS011;3207;42.648;23.406;2022-12-08T00:05:43;19.37;;;13.47;;
6348;SDS011;3207;42.648;23.406;2022-12-08T00:08:27;23.30;;;15.03;;
6348;SDS011;3207;42.648;23.406;2022-12-08T00:11:11;20.93;;;14.20;;
6348;SDS011;3207;42.648;23.406;2022-12-08T00:13:39;19.90;;;14.37;;
6348;SDS011;3207;42.648;23.406;2022-12-08T00:16:06;23.20;;;14.00;;
6348;SDS011;3207;42.648;23.406;2022-12-08T00:18:33;22.30;;;14.80;;
6348;SDS011;3207;42.648;23.406;2022-12-08T00:21:00;20.27;;;14.57;;
6348;SDS011;3207;42.648;23.406;2022-12-08T00:23:28;21.20;;;14.17;;
6348;SDS011;3207;42.648;23.406;2022-12-08T00:25:55;21.40;;;14.67;;
6348;SDS011;3207;42.648;23.406;2022-12-08T00:28:21;25.23;;;15.27;;
6348;SDS011;3207;42.648;23.406;2022-12-08T00:30:49;26.17;;;13.87;;
6348;SDS011;3207;42.648;23.406;2022-12-08T00:33:16;20.27;;;13.83;;
6348;SDS011;3207;42.648;23.406;2022-12-08T00:35:43;21.10;;;14.10;;
6348;SDS011;3207;42.648;23.406;2022-12-08T00:38:10;20.17;;;14.77;;
6348;SDS011;3207;42.648;23.406;2022-12-08T00:40:36;22.83;;;14.97;;
6348;SDS011;3207;42.648;23.406;2022-12-08T00:43:03;23.10;;;15.17;;
6348;SDS011;3207;42.648;23.406;2022-12-08T00:45:30;20.17;;;13.93;;
6348;SDS011;3207;42.648;23.406;2022-12-08T00:47:58;20.63;;;13.47;;
6348;SDS011;3207;42.648;23.406;2022-12-08T00:50:25;22.37;;;13.77;;
6348;SDS011;3207;42.648;23.406;2022-12-08T00:52:51;21.50;;;13.57;;
6348;SDS011;3207;42.648;23.406;2022-12-08T00:55:18;21.93;;;14.47;;
6348;SDS011;3207;42.648;23.406;2022-12-08T00:57:45;18.93;;;12.67;;
6348;SDS011;3207;42.648;23.406;2022-12-08T01:00:12;20.50;;;14.00;;
6348;SDS011;3207;42.648;23.406;2022-12-08T01:02:39;21.40;;;14.20;;
6348;SDS011;3207;42.648;23.406;2022-12-08T01:05:08;22.97;;;13.87;;
6348;SDS011;3207;42.648;23.406;2022-12-08T01:07:35;21.90;;;15.23;;
6348;SDS011;3207;42.648;23.406;2022-12-08T01:10:02;25.73;;;14.17;;
6348;SDS011;3207;42.648;23.406;2022-12-08T01:12:29;24.73;;;14.93;;
6348;SDS011;3207;42.648;23.406;2022-12-08T01:14:56;22.80;;;14.20;;
6348;SDS011;3207;42.648;23.406;2022-12-08T01:17:22;21.17;;;13.83;;
6348;SDS011;3207;42.648;23.406;2022-12-08T01:19:49;20.23;;;14.07;;
6348;SDS011;3207;42.648;23.406;2022-12-08T01:22:18;21.93;;;15.17;;
6348;SDS011;3207;42.648;23.406;2022-12-08T01:24:44;23.20;;;14.37;;
6348;SDS011;3207;42.648;23.406;2022-12-08T01:27:13;23.20;;;15.67;;
6348;SDS011;3207;42.648;23.406;2022-12-08T01:29:40;24.37;;;15.50;;
6348;SDS011;3207;42.648;23.406;2022-12-08T01:32:07;21.33;;;13.80;;
6348;SDS011;3207;42.648;23.406;2022-12-08T01:34:34;22.00;;;15.00;;
6348;SDS011;3207;42.648;23.406;2022-12-08T01:37:01;21.10;;;14.40;;
6348;SDS011;3207;42.648;23.406;2022-12-08T01:39:29;23.90;;;16.30;;
6348;SDS011;3207;42.648;23.406;2022-12-08T01:41:56;24.47;;;15.20;;
6348;SDS011;3207;42.648;23.406;2022-12-08T01:47:19;25.40;;;15.00;;
6348;SDS011;3207;42.648;23.406;2022-12-08T01:49:46;21.17;;;13.40;;
6348;SDS011;3207;42.648;23.406;2022-12-08T01:52:15;22.03;;;14.53;;
6348;SDS011;3207;42.648;23.406;2022-12-08T01:54:48;21.60;;;15.77;;
6348;SDS011;3207;42.648;23.406;2022-12-08T01:57:20;27.33;;;16.80;;
6348;SDS011;3207;42.648;23.406;2022-12-08T01:59:51;24.30;;;15.23;;
6348;SDS011;3207;42.648;23.406;2022-12-08T02:02:25;26.13;;;15.17;;
6348;SDS011;3207;42.648;23.406;2022-12-08T02:04:57;25.23;;;16.03;;
6348;SDS011;3207;42.648;23.406;2022-12-08T02:07:24;25.10;;;15.73;;
6348;SDS011;3207;42.648;23.406;2022-12-08T02:09:52;26.93;;;15.97;;
6348;SDS011;3207;42.648;23.406;2022-12-08T02:12:20;23.77;;;14.43;;
6348;SDS011;3207;42.648;23.406;2022-12-08T02:14:46;22.17;;;14.90;;
6348;SDS011;3207;42.648;23.406;2022-12-08T02:17:16;27.23;;;15.80;;
6348;SDS011;3207;42.648;23.406;2022-12-08T02:19:59;28.23;;;16.07;;
6348;SDS011;3207;42.648;23.406;2022-12-08T02:22:42;24.87;;;15.40;;
6348;SDS011;3207;42.648;23.406;2022-12-08T02:25:18;22.17;;;14.83;;
6348;SDS011;3207;42.648;23.406;2022-12-08T02:27:53;25.43;;;16.87;;
6348;SDS011;3207;42.648;23.406;2022-12-08T02:30:31;22.13;;;14.53;;
6348;SDS011;3207;42.648;23.406;2022-12-08T02:36:08;26.37;;;14.83;;
6348;SDS011;3207;42.648;23.406;2022-12-08T02:38:45;24.40;;;15.37;;
6348;SDS011;3207;42.648;23.406;2022-12-08T02:41:17;22.23;;;15.03;;
6348;SDS011;3207;42.648;23.406;2022-12-08T02:43:53;23.13;;;14.07;;
6348;SDS011;3207;42.648;23.406;2022-12-08T02:46:26;21.13;;;13.50;;
6348;SDS011;3207;42.648;23.406;2022-12-08T02:48:56;21.13;;;13.87;;
6348;SDS011;3207;42.648;23.406;2022-12-08T02:51:25;22.10;;;14.07;;
6348;SDS011;3207;42.648;23.406;2022-12-08T02:53:52;24.03;;;14.77;;
6348;SDS011;3207;42.648;23.406;2022-12-08T02:56:25;23.40;;;14.67;;
6348;SDS011;3207;42.648;23.406;2022-12-08T02:59:15;24.63;;;15.53;;
6348;SDS011;3207;42.648;23.406;2022-12-08T03:01:55;23.33;;;14.70;;
6348;SDS011;3207;42.648;23.406;2022-12-08T03:04:37;28.17;;;15.13;;
6348;SDS011;3207;42.648;23.406;2022-12-08T03:07:13;21.97;;;14.73;;
6348;SDS011;3207;42.648;23.406;2022-12-08T03:09:48;23.73;;;14.37;;
6348;SDS011;3207;42.648;23.406;2022-12-08T03:12:21;22.73;;;14.30;;
6348;SDS011;3207;42.648;23.406;2022-12-08T03:14:55;24.53;;;14.53;;
6348;SDS011;3207;42.648;23.406;2022-12-08T03:17:26;21.97;;;14.70;;
6348;SDS011;3207;42.648;23.406;2022-12-08T03:19:54;22.67;;;14.37;;
6348;SDS011;3207;42.648;23.406;2022-12-08T03:22:26;22.93;;;14.67;;
6348;SDS011;3207;42.648;23.406;2022-12-08T03:24:54;23.37;;;15.23;;
6348;SDS011;3207;42.648;23.406;2022-12-08T03:27:22;22.37;;;14.80;;
6348;SDS011;3207;42.648;23.406;2022-12-08T03:29:52;22.17;;;14.37;;
6348;SDS011;3207;42.648;23.406;2022-12-08T03:32:23;22.73;;;14.93;;
6348;SDS011;3207;42.648;23.406;2022-12-08T03:34:54;26.10;;;15.23;;
6348;SDS011;3207;42.648;23.406;2022-12-08T03:37:23;25.97;;;15.20;;
6348;SDS011;3207;42.648;23.406;2022-12-08T03:39:53;25.13;;;14.17;;
6348;SDS011;3207;42.648;23.406;2022-12-08T03:42:20;26.40;;;16.93;;
6348;SDS011;3207;42.648;23.406;2022-12-08T03:44:47;22.97;;;14.93;;
6348;SDS011;3207;42.648;23.406;2022-12-08T03:47:14;26.10;;;16.30;;
6348;SDS011;3207;42.648;23.406;2022-12-08T03:49:40;23.07;;;15.03;;
6348;SDS011;3207;42.648;23.406;2022-12-08T03:52:07;28.33;;;15.93;;
6348;SDS011;3207;42.648;23.406;2022-12-08T03:54:34;24.67;;;15.73;;
6348;SDS011;3207;42.648;23.406;2022-12-08T03:57:02;27.57;;;16.53;;
6348;SDS011;3207;42.648;23.406;2022-12-08T03:59:29;29.27;;;17.63;;
6348;SDS011;3207;42.648;23.406;2022-12-08T04:01:56;25.63;;;15.80;;
6348;SDS011;3207;42.648;23.406;2022-12-08T04:04:22;26.63;;;16.43;;
6348;SDS011;3207;42.648;23.406;2022-12-08T04:06:49;24.20;;;15.60;;
6348;SDS011;3207;42.648;23.406;2022-12-08T04:09:16;24.73;;;15.03;;
6348;SDS011;3207;42.648;23.406;2022-12-08T04:11:43;28.33;;;16.07;;
6348;SDS011;3207;42.648;23.406;2022-12-08T04:14:11;27.23;;;16.57;;
6348;SDS011;3207;42.648;23.406;2022-12-08T04:16:38;24.27;;;16.40;;
6348;SDS011;3207;42.648;23.406;2022-12-08T04:19:05;22.83;;;15.47;;
6348;SDS011;3207;42.648;23.406;2022-12-08T04:21:31;24.97;;;15.93;;
6348;SDS011;3207;42.648;23.406;2022-12-08T04:23:58;25.10;;;15.53;;
6348;SDS011;3207;42.648;23.406;2022-12-08T04:26:25;27.80;;;15.97;;
6348;SDS011;3207;42.648;23.406;2022-12-08T04:28:52;25.27;;;15.53;;
6348;SDS011;3207;42.648;23.406;2022-12-08T04:31:20;27.80;;;17.40;;
6348;SDS011;3207;42.648;23.406;2022-12-08T04:33:47;25.10;;;16.37;;
6348;SDS011;3207;42.648;23.406;2022-12-08T04:36:13;25.33;;;16.20;;
6348;SDS011;3207;42.648;23.406;2022-12-08T04:38:40;28.00;;;16.03;;
6348;SDS011;3207;42.648;23.406;2022-12-08T04:41:07;26.80;;;15.80;;
6348;SDS011;3207;42.648;23.406;2022-12-08T04:43:34;24.97;;;15.77;;
6348;SDS011;3207;42.648;23.406;2022-12-08T04:46:04;28.77;;;16.97;;
6348;SDS011;3207;42.648;23.406;2022-12-08T04:48:33;26.77;;;16.70;;
6348;SDS011;3207;42.648;23.406;2022-12-08T04:51:01;23.43;;;15.50;;
6348;SDS011;3207;42.648;23.406;2022-12-08T04:53:28;25.33;;;16.20;;
6348;SDS011;3207;42.648;23.406;2022-12-08T04:55:55;27.57;;;15.53;;
6348;SDS011;3207;42.648;23.406;2022-12-08T04:58:22;24.33;;;16.13;;
6348;SDS011;3207;42.648;23.406;2022-12-08T05:00:49;23.37;;;15.67;;
6348;SDS011;3207;42.648;23.406;2022-12-08T05:03:16;26.77;;;15.87;;
6348;SDS011;3207;42.648;23.406;2022-12-08T05:05:44;26.23;;;17.07;;
6348;SDS011;3207;42.648;23.406;2022-12-08T05:08:11;22.07;;;14.57;;
6348;SDS011;3207;42.648;23.406;2022-12-08T05:10:38;24.60;;;17.57;;
6348;SDS011;3207;42.648;23.406;2022-12-08T05:13:05;26.37;;;16.90;;
6348;SDS011;3207;42.648;23.406;2022-12-08T05:15:31;21.67;;;15.23;;
6348;SDS011;3207;42.648;23.406;2022-12-08T05:17:58;23.03;;;15.47;;
6348;SDS011;3207;42.648;23.406;2022-12-08T05:20:25;28.47;;;17.83;;
6348;SDS011;3207;42.648;23.406;2022-12-08T05:22:53;23.33;;;16.63;;
6348;SDS011;3207;42.648;23.406;2022-12-08T05:25:20;25.43;;;16.47;;
6348;SDS011;3207;42.648;23.406;2022-12-08T05:27:46;26.87;;;16.83;;
6348;SDS011;3207;42.648;23.406;2022-12-08T05:30:13;25.37;;;16.47;;
6348;SDS011;3207;42.648;23.406;2022-12-08T05:32:40;34.23;;;19.47;;
6348;SDS011;3207;42.648;23.406;2022-12-08T05:35:07;26.47;;;16.40;;
6348;SDS011;3207;42.648;23.406;2022-12-08T05:37:34;29.23;;;18.37;;
6348;SDS011;3207;42.648;23.406;2022-12-08T05:40:03;31.03;;;18.63;;
6348;SDS011;3207;42.648;23.406;2022-12-08T05:42:30;28.93;;;17.97;;
6348;SDS011;3207;42.648;23.406;2022-12-08T05:44:57;26.23;;;18.00;;
6348;SDS011;3207;42.648;23.406;2022-12-08T05:47:24;30.93;;;19.33;;
6348;SDS011;3207;42.648;23.406;2022-12-08T05:49:51;29.30;;;18.93;;
6348;SDS011;3207;42.648;23.406;2022-12-08T05:52:18;28.47;;;19.57;;
6348;SDS011;3207;42.648;23.406;2022-12-08T05:54:45;28.87;;;17.23;;
6348;SDS011;3207;42.648;23.406;2022-12-08T05:57:13;32.50;;;18.93;;
6348;SDS011;3207;42.648;23.406;2022-12-08T05:59:40;26.17;;;18.90;;
6348;SDS011;3207;42.648;23.406;2022-12-08T06:02:07;29.57;;;18.53;;
6348;SDS011;3207;42.648;23.406;2022-12-08T06:04:34;26.73;;;17.07;;
6348;SDS011;3207;42.648;23.406;2022-12-08T06:07:01;27.13;;;17.07;;
6348;SDS011;3207;42.648;23.406;2022-12-08T06:09:28;26.47;;;17.20;;
6348;SDS011;3207;42.648;23.406;2022-12-08T06:11:54;30.40;;;18.23;;
6348;SDS011;3207;42.648;23.406;2022-12-08T06:14:22;27.80;;;18.30;;
6348;SDS011;3207;42.648;23.406;2022-12-08T06:16:49;21.93;;;16.47;;
6348;SDS011;3207;42.648;23.406;2022-12-08T06:19:16;31.10;;;18.83;;
6348;SDS011;3207;42.648;23.406;2022-12-08T06:21:43;32.60;;;18.10;;
6348;SDS011;3207;42.648;23.406;2022-12-08T06:24:09;27.80;;;17.17;;
6348;SDS011;3207;42.648;23.406;2022-12-08T06:26:37;27.00;;;17.97;;
6348;SDS011;3207;42.648;23.406;2022-12-08T06:29:05;29.33;;;19.20;;
6348;SDS011;3207;42.648;23.406;2022-12-08T06:31:33;34.70;;;19.33;;
6348;SDS011;3207;42.648;23.406;2022-12-08T06:34:00;33.13;;;19.67;;
6348;SDS011;3207;42.648;23.406;2022-12-08T06:36:26;30.13;;;19.63;;
6348;SDS011;3207;42.648;23.406;2022-12-08T06:38:54;29.00;;;18.43;;
6348;SDS011;3207;42.648;23.406;2022-12-08T06:41:20;28.40;;;20.10;;
6348;SDS011;3207;42.648;23.406;2022-12-08T06:43:47;29.13;;;18.80;;
6348;SDS011;3207;42.648;23.406;2022-12-08T06:46:15;30.87;;;20.07;;
6348;SDS011;3207;42.648;23.406;2022-12-08T06:48:44;30.33;;;19.57;;
6348;SDS011;3207;42.648;23.406;2022-12-08T06:51:12;30.43;;;18.77;;
6348;SDS011;3207;42.648;23.406;2022-12-08T06:53:41;30.37;;;19.30;;
6348;SDS011;3207;42.648;23.406;2022-12-08T06:56:08;28.83;;;18.90;;
6348;SDS011;3207;42.648;23.406;2022-12-08T06:58:36;31.23;;;18.70;;
6348;SDS011;3207;42.648;23.406;2022-12-08T07:01:04;30.97;;;20.60;;
6348;SDS011;3207;42.648;23.406;2022-12-08T07:03:32;28.77;;;19.07;;
6348;SDS011;3207;42.648;23.406;2022-12-08T07:06:00;35.17;;;21.20;;
6348;SDS011;3207;42.648;23.406;2022-12-08T07:08:27;29.10;;;18.87;;
6348;SDS011;3207;42.648;23.406;2022-12-08T07:10:54;30.60;;;19.60;;
6348;SDS011;3207;42.648;23.406;2022-12-08T07:13:20;35.67;;;20.13;;
6348;SDS011;3207;42.648;23.406;2022-12-08T07:15:47;33.27;;;19.97;;
6348;SDS011;3207;42.648;23.406;2022-12-08T07:18:14;35.53;;;21.33;;
6348;SDS011;3207;42.648;23.406;2022-12-08T07:20:41;33.07;;;18.60;;
6348;SDS011;3207;42.648;23.406;2022-12-08T07:23:09;31.03;;;19.27;;
6348;SDS011;3207;42.648;23.406;2022-12-08T07:25:36;30.43;;;18.77;;
6348;SDS011;3207;42.648;23.406;2022-12-08T07:28:06;32.10;;;19.20;;
6348;SDS011;3207;42.648;23.406;2022-12-08T07:30:37;32.57;;;21.73;;
6348;SDS011;3207;42.648;23.406;2022-12-08T07:33:04;31.80;;;20.60;;
6348;SDS011;3207;42.648;23.406;2022-12-08T07:35:31;32.47;;;20.97;;
6348;SDS011;3207;42.648;23.406;2022-12-08T07:37:58;36.00;;;20.20;;
6348;SDS011;3207;42.648;23.406;2022-12-08T07:40:26;39.40;;;21.57;;
6348;SDS011;3207;42.648;23.406;2022-12-08T07:42:53;33.30;;;20.80;;
6348;SDS011;3207;42.648;23.406;2022-12-08T07:45:19;35.67;;;21.17;;
6348;SDS011;3207;42.648;23.406;2022-12-08T07:47:46;32.30;;;19.93;;
6348;SDS011;3207;42.648;23.406;2022-12-08T07:50:13;33.37;;;21.23;;
6348;SDS011;3207;42.648;23.406;2022-12-08T07:52:40;41.13;;;21.33;;
6348;SDS011;3207;42.648;23.406;2022-12-08T07:55:07;34.57;;;20.43;;
6348;SDS011;3207;42.648;23.406;2022-12-08T07:57:35;36.77;;;19.90;;
6348;SDS011;3207;42.648;23.406;2022-12-08T08:00:03;37.23;;;21.07;;
6348;SDS011;3207;42.648;23.406;2022-12-08T08:02:31;36.80;;;21.53;;
6348;SDS011;3207;42.648;23.406;2022-12-08T08:04:57;34.30;;;18.50;;
6348;SDS011;3207;42.648;23.406;2022-12-08T08:07:24;35.13;;;20.03;;
6348;SDS011;3207;42.648;23.406;2022-12-08T08:09:51;32.93;;;20.20;;
6348;SDS011;3207;42.648;23.406;2022-12-08T08:12:18;35.93;;;20.47;;
6348;SDS011;3207;42.648;23.406;2022-12-08T08:14:46;33.63;;;20.33;;
6348;SDS011;3207;42.648;23.406;2022-12-08T08:17:13;38.33;;;21.70;;
6348;SDS011;3207;42.648;23.406;2022-12-08T08:19:39;34.07;;;20.13;;
6348;SDS011;3207;42.648;23.406;2022-12-08T08:22:06;33.87;;;20.93;;
6348;SDS011;3207;42.648;23.406;2022-12-08T08:24:33;35.57;;;21.60;;
6348;SDS011;3207;42.648;23.406;2022-12-08T08:27:00;37.30;;;20.30;;
6348;SDS011;3207;42.648;23.406;2022-12-08T08:29:26;41.97;;;22.10;;
6348;SDS011;3207;42.648;23.406;2022-12-08T08:31:55;42.37;;;21.20;;
6348;SDS011;3207;42.648;23.406;2022-12-08T08:34:21;41.87;;;22.60;;
6348;SDS011;3207;42.648;23.406;2022-12-08T08:36:48;38.73;;;21.47;;
6348;SDS011;3207;42.648;23.406;2022-12-08T08:39:15;42.23;;;21.33;;
6348;SDS011;3207;42.648;23.406;2022-12-08T08:41:41;39.40;;;21.57;;
6348;SDS011;3207;42.648;23.406;2022-12-08T08:44:08;40.83;;;21.43;;
6348;SDS011;3207;42.648;23.406;2022-12-08T08:46:35;44.07;;;22.03;;
6348;SDS011;3207;42.648;23.406;2022-12-08T08:49:03;45.83;;;22.33;;
6348;SDS011;3207;42.648;23.406;2022-12-08T08:51:30;38.37;;;21.33;;
6348;SDS011;3207;42.648;23.406;2022-12-08T08:53:57;48.57;;;22.97;;
6348;SDS011;3207;42.648;23.406;2022-12-08T08:56:24;49.90;;;24.80;;
6348;SDS011;3207;42.648;23.406;2022-12-08T08:58:51;41.63;;;21.97;;
6348;SDS011;3207;42.648;23.406;2022-12-08T09:01:20;53.27;;;24.97;;
6348;SDS011;3207;42.648;23.406;2022-12-08T09:03:48;41.87;;;21.00;;
6348;SDS011;3207;42.648;23.406;2022-12-08T09:06:16;42.93;;;22.33;;
6348;SDS011;3207;42.648;23.406;2022-12-08T09:08:43;47.93;;;25.93;;
6348;SDS011;3207;42.648;23.406;2022-12-08T09:11:11;47.57;;;22.83;;
6348;SDS011;3207;42.648;23.406;2022-12-08T09:13:38;42.27;;;22.13;;
6348;SDS011;3207;42.648;23.406;2022-12-08T09:16:06;47.10;;;22.73;;
6348;SDS011;3207;42.648;23.406;2022-12-08T09:18:34;44.87;;;24.37;;
6348;SDS011;3207;42.648;23.406;2022-12-08T09:21:04;44.20;;;23.27;;
6348;SDS011;3207;42.648;23.406;2022-12-08T09:23:33;37.63;;;21.73;;
6348;SDS011;3207;42.648;23.406;2022-12-08T09:26:01;41.83;;;22.77;;
6348;SDS011;3207;42.648;23.406;2022-12-08T09:28:29;44.70;;;25.80;;
6348;SDS011;3207;42.648;23.406;2022-12-08T09:30:55;47.30;;;23.47;;
6348;SDS011;3207;42.648;23.406;2022-12-08T09:33:22;44.67;;;22.50;;
6348;SDS011;3207;42.648;23.406;2022-12-08T09:35:49;46.33;;;24.23;;
6348;SDS011;3207;42.648;23.406;2022-12-08T09:38:16;48.47;;;22.00;;
6348;SDS011;3207;42.648;23.406;2022-12-08T09:40:45;45.17;;;21.97;;
6348;SDS011;3207;42.648;23.406;2022-12-08T09:43:18;41.13;;;21.23;;
6348;SDS011;3207;42.648;23.406;2022-12-08T09:45:56;39.13;;;20.97;;
6348;SDS011;3207;42.648;23.406;2022-12-08T09:48:26;40.97;;;22.93;;
6348;SDS011;3207;42.648;23.406;2022-12-08T09:50:57;45.27;;;22.87;;
6348;SDS011;3207;42.648;23.406;2022-12-08T09:53:24;45.37;;;23.60;;
6348;SDS011;3207;42.648;23.406;2022-12-08T09:55:55;51.57;;;24.17;;
6348;SDS011;3207;42.648;23.406;2022-12-08T09:58:25;49.67;;;24.57;;
6348;SDS011;3207;42.648;23.406;2022-12-08T10:00:57;50.73;;;25.00;;
6348;SDS011;3207;42.648;23.406;2022-12-08T10:03:25;48.33;;;27.50;;
6348;SDS011;3207;42.648;23.406;2022-12-08T10:05:56;49.30;;;26.47;;
6348;SDS011;3207;42.648;23.406;2022-12-08T10:08:32;57.83;;;28.13;;
6348;SDS011;3207;42.648;23.406;2022-12-08T10:11:09;50.00;;;25.70;;
6348;SDS011;3207;42.648;23.406;2022-12-08T10:13:41;42.57;;;22.50;;
6348;SDS011;3207;42.648;23.406;2022-12-08T10:16:17;41.17;;;22.47;;
6348;SDS011;3207;42.648;23.406;2022-12-08T10:18:51;45.67;;;25.20;;
6348;SDS011;3207;42.648;23.406;2022-12-08T10:21:24;43.90;;;24.67;;
6348;SDS011;3207;42.648;23.406;2022-12-08T10:23:54;50.70;;;25.73;;
6348;SDS011;3207;42.648;23.406;2022-12-08T10:26:28;50.47;;;26.07;;
6348;SDS011;3207;42.648;23.406;2022-12-08T10:28:57;49.10;;;26.53;;
6348;SDS011;3207;42.648;23.406;2022-12-08T10:31:26;47.87;;;25.87;;
6348;SDS011;3207;42.648;23.406;2022-12-08T10:33:56;40.63;;;22.63;;
6348;SDS011;3207;42.648;23.406;2022-12-08T10:36:44;41.37;;;23.07;;
6348;SDS011;3207;42.648;23.406;2022-12-08T10:39:28;38.87;;;21.90;;
6348;SDS011;3207;42.648;23.406;2022-12-08T10:42:00;39.17;;;21.77;;
6348;SDS011;3207;42.648;23.406;2022-12-08T10:44:47;46.13;;;24.77;;
6348;SDS011;3207;42.648;23.406;2022-12-08T10:47:19;52.10;;;25.40;;
6348;SDS011;3207;42.648;23.406;2022-12-08T10:49:47;45.20;;;24.57;;
6348;SDS011;3207;42.648;23.406;2022-12-08T10:52:36;44.40;;;24.20;;
6348;SDS011;3207;42.648;23.406;2022-12-08T10:55:11;46.47;;;23.07;;
6348;SDS011;3207;42.648;23.406;2022-12-08T10:57:41;49.87;;;25.53;;
6348;SDS011;3207;42.648;23.406;2022-12-08T11:00:11;48.23;;;26.20;;
6348;SDS011;3207;42.648;23.406;2022-12-08T11:02:48;44.57;;;25.30;;
6348;SDS011;3207;42.648;23.406;2022-12-08T11:05:18;52.73;;;26.17;;
6348;SDS011;3207;42.648;23.406;2022-12-08T11:07:48;44.67;;;25.47;;
6348;SDS011;3207;42.648;23.406;2022-12-08T11:10:17;47.47;;;26.50;;
6348;SDS011;3207;42.648;23.406;2022-12-08T11:12:47;52.57;;;26.73;;
6348;SDS011;3207;42.648;23.406;2022-12-08T11:15:15;48.03;;;26.83;;
6348;SDS011;3207;42.648;23.406;2022-12-08T11:17:43;50.13;;;27.70;;
6348;SDS011;3207;42.648;23.406;2022-12-08T11:20:20;56.80;;;29.37;;
6348;SDS011;3207;42.648;23.406;2022-12-08T11:22:52;55.57;;;27.00;;
6348;SDS011;3207;42.648;23.406;2022-12-08T11:25:20;54.63;;;27.23;;
6348;SDS011;3207;42.648;23.406;2022-12-08T11:27:52;47.67;;;27.23;;
6348;SDS011;3207;42.648;23.406;2022-12-08T11:30:22;43.33;;;24.53;;
6348;SDS011;3207;42.648;23.406;2022-12-08T11:32:52;47.90;;;26.40;;
6348;SDS011;3207;42.648;23.406;2022-12-08T11:35:22;41.17;;;24.00;;
6348;SDS011;3207;42.648;23.406;2022-12-08T11:37:54;50.60;;;27.03;;
6348;SDS011;3207;42.648;23.406;2022-12-08T11:40:28;44.83;;;25.40;;
6348;SDS011;3207;42.648;23.406;2022-12-08T11:43:04;45.03;;;26.97;;
6348;SDS011;3207;42.648;23.406;2022-12-08T11:45:37;49.07;;;27.80;;
6348;SDS011;3207;42.648;23.406;2022-12-08T11:48:09;49.00;;;25.20;;
6348;SDS011;3207;42.648;23.406;2022-12-08T11:50:40;48.37;;;26.90;;
6348;SDS011;3207;42.648;23.406;2022-12-08T11:53:14;50.40;;;29.33;;
6348;SDS011;3207;42.648;23.406;2022-12-08T11:55:46;50.80;;;31.00;;
6348;SDS011;3207;42.648;23.406;2022-12-08T11:58:20;50.60;;;29.00;;
6348;SDS011;3207;42.648;23.406;2022-12-08T12:00:50;51.73;;;29.13;;
6348;SDS011;3207;42.648;23.406;2022-12-08T12:03:19;52.00;;;29.30;;
6348;SDS011;3207;42.648;23.406;2022-12-08T12:05:56;51.03;;;28.33;;
6348;SDS011;3207;42.648;23.406;2022-12-08T12:08:41;49.40;;;29.00;;
6348;SDS011;3207;42.648;23.406;2022-12-08T12:11:20;54.73;;;29.27;;
6348;SDS011;3207;42.648;23.406;2022-12-08T12:14:20;56.53;;;29.70;;
6348;SDS011;3207;42.648;23.406;2022-12-08T12:17:01;57.47;;;32.47;;
6348;SDS011;3207;42.648;23.406;2022-12-08T12:19:28;53.40;;;29.10;;
6348;SDS011;3207;42.648;23.406;2022-12-08T12:22:05;55.10;;;30.77;;
6348;SDS011;3207;42.648;23.406;2022-12-08T12:24:38;51.80;;;29.43;;
6348;SDS011;3207;42.648;23.406;2022-12-08T12:27:05;61.13;;;29.83;;
6348;SDS011;3207;42.648;23.406;2022-12-08T12:29:48;44.20;;;27.03;;
6348;SDS011;3207;42.648;23.406;2022-12-08T12:32:19;50.90;;;28.13;;
6348;SDS011;3207;42.648;23.406;2022-12-08T12:34:47;58.13;;;30.87;;
6348;SDS011;3207;42.648;23.406;2022-12-08T12:37:17;54.53;;;29.63;;
6348;SDS011;3207;42.648;23.406;2022-12-08T12:39:47;58.90;;;32.53;;
6348;SDS011;3207;42.648;23.406;2022-12-08T12:42:35;63.73;;;30.70;;
6348;SDS011;3207;42.648;23.406;2022-12-08T12:45:20;60.13;;;33.23;;
6348;SDS011;3207;42.648;23.406;2022-12-08T12:47:51;55.50;;;31.60;;
6348;SDS011;3207;42.648;23.406;2022-12-08T12:50:41;56.80;;;30.27;;
6348;SDS011;3207;42.648;23.406;2022-12-08T12:59:21;55.07;;;27.90;;
6348;SDS011;3207;42.648;23.406;2022-12-08T13:02:01;58.73;;;29.20;;
6348;SDS011;3207;42.648;23.406;2022-12-08T13:04:29;51.07;;;27.57;;
6348;SDS011;3207;42.648;23.406;2022-12-08T13:06:59;60.13;;;31.13;;
6348;SDS011;3207;42.648;23.406;2022-12-08T13:09:28;59.63;;;31.53;;
6348;SDS011;3207;42.648;23.406;2022-12-08T13:11:58;51.93;;;30.07;;
6348;SDS011;3207;42.648;23.406;2022-12-08T13:14:34;55.97;;;29.83;;
6348;SDS011;3207;42.648;23.406;2022-12-08T13:17:05;56.20;;;28.20;;
6348;SDS011;3207;42.648;23.406;2022-12-08T13:19:37;50.40;;;26.67;;
6348;SDS011;3207;42.648;23.406;2022-12-08T13:28:19;41.90;;;22.90;;
6348;SDS011;3207;42.648;23.406;2022-12-08T13:30:48;49.30;;;25.53;;
6348;SDS011;3207;42.648;23.406;2022-12-08T13:33:22;51.83;;;27.30;;
6348;SDS011;3207;42.648;23.406;2022-12-08T13:35:54;57.23;;;28.47;;
6348;SDS011;3207;42.648;23.406;2022-12-08T13:38:28;56.60;;;28.17;;
6348;SDS011;3207;42.648;23.406;2022-12-08T13:40:59;54.10;;;27.47;;
6348;SDS011;3207;42.648;23.406;2022-12-08T13:43:31;53.33;;;27.77;;
6348;SDS011;3207;42.648;23.406;2022-12-08T13:46:04;45.90;;;26.37;;
6348;SDS011;3207;42.648;23.406;2022-12-08T13:48:37;48.03;;;25.73;;
6348;SDS011;3207;42.648;23.406;2022-12-08T13:51:12;47.80;;;26.20;;
6348;SDS011;3207;42.648;23.406;2022-12-08T13:53:43;47.00;;;23.60;;
6348;SDS011;3207;42.648;23.406;2022-12-08T13:56:18;47.27;;;25.17;;
6348;SDS011;3207;42.648;23.406;2022-12-08T13:58:46;51.07;;;26.07;;
6348;SDS011;3207;42.648;23.406;2022-12-08T14:01:13;52.03;;;24.73;;
6348;SDS011;3207;42.648;23.406;2022-12-08T14:03:47;50.00;;;26.17;;
6348;SDS011;3207;42.648;23.406;2022-12-08T14:06:17;48.10;;;23.57;;
6348;SDS011;3207;42.648;23.406;2022-12-08T14:08:45;42.67;;;25.43;;
6348;SDS011;3207;42.648;23.406;2022-12-08T14:11:20;38.20;;;21.73;;
6348;SDS011;3207;42.648;23.406;2022-12-08T14:13:59;40.13;;;23.57;;
6348;SDS011;3207;42.648;23.406;2022-12-08T14:16:28;44.13;;;23.43;;
6348;SDS011;3207;42.648;23.406;2022-12-08T14:19:12;44.10;;;22.43;;
6348;SDS011;3207;42.648;23.406;2022-12-08T14:21:45;38.00;;;22.63;;
6348;SDS011;3207;42.648;23.406;2022-12-08T14:24:13;40.87;;;22.83;;
6348;SDS011;3207;42.648;23.406;2022-12-08T14:26:39;43.03;;;22.57;;
6348;SDS011;3207;42.648;23.406;2022-12-08T14:29:06;42.10;;;22.97;;
6348;SDS011;3207;42.648;23.406;2022-12-08T14:31:34;47.87;;;24.13;;
6348;SDS011;3207;42.648;23.406;2022-12-08T14:34:00;38.47;;;22.50;;
6348;SDS011;3207;42.648;23.406;2022-12-08T14:36:29;49.03;;;24.57;;
6348;SDS011;3207;42.648;23.406;2022-12-08T14:38:57;42.73;;;23.90;;
6348;SDS011;3207;42.648;23.406;2022-12-08T14:41:25;43.73;;;23.40;;
6348;SDS011;3207;42.648;23.406;2022-12-08T14:43:57;36.70;;;20.53;;
6348;SDS011;3207;42.648;23.406;2022-12-08T14:46:25;41.63;;;20.63;;
6348;SDS011;3207;42.648;23.406;2022-12-08T14:48:52;36.73;;;20.63;;
6348;SDS011;3207;42.648;23.406;2022-12-08T14:51:22;37.10;;;19.77;;
6348;SDS011;3207;42.648;23.406;2022-12-08T14:53:55;33.77;;;19.17;;
6348;SDS011;3207;42.648;23.406;2022-12-08T14:56:24;34.67;;;20.80;;
6348;SDS011;3207;42.648;23.406;2022-12-08T14:59:04;39.37;;;20.73;;
6348;SDS011;3207;42.648;23.406;2022-12-08T15:01:35;32.20;;;17.40;;
6348;SDS011;3207;42.648;23.406;2022-12-08T15:04:06;35.20;;;19.20;;
6348;SDS011;3207;42.648;23.406;2022-12-08T15:06:34;39.40;;;21.13;;